sensor_id;sensor_type;location;lat;lon;timestamp;P1;durP1;ratioP1;P2;durP2;ratioP2
13388;SDS011;6764;53.250;10.410;2023-04-30T00:00:05;10.13;;;3.87;;
13388;SDS011;6764;53.250;10.410;2023-04-30T00:02:33;13.67;;;4.03;;
13388;SDS011;6764;53.250;10.410;2023-04-30T00:05:01;8.97;;;4.00;;
13388;SDS011;6764;53.250;10.410;2023-04-30T00:07:26;9.67;;;3.67;;
13388;SDS011;6764;53.250;10.410;2023-04-30T00:09:52;12.93;;;4.53;;
13388;SDS011;6764;53.250;10.410;2023-04-30T00:12:17;9.20;;;3.50;;
13388;SDS011;6764;53.250;10.410;2023-04-30T00:14:43;12.20;;;3.83;;
13388;SDS011;6764;53.250;10.410;2023-04-30T00:17:09;10.10;;;4.13;;
13388;SDS011;6764;53.250;10.410;2023-04-30T00:19:34;10.23;;;3.43;;
13388;SDS011;6764;53.250;10.410;2023-04-30T00:22:00;6.67;;;3.30;;
13388;SDS011;6764;53.250;10.410;2023-04-30T00:24:26;8.63;;;3.37;;
13388;SDS011;6764;53.250;10.410;2023-04-30T00:26:52;8.57;;;3.50;;
13388;SDS011;6764;53.250;10.410;2023-04-30T00:29:18;9.13;;;3.47;;
13388;SDS011;6764;53.250;10.410;2023-04-30T00:31:43;7.13;;;3.50;;
13388;SDS011;6764;53.250;10.410;2023-04-30T00:34:09;8.80;;;3.97;;
13388;SDS011;6764;53.250;10.410;2023-04-30T00:36:34;8.77;;;3.40;;
13388;SDS011;6764;53.250;10.410;2023-04-30T00:39:00;8.50;;;3.40;;
13388;SDS011;6764;53.250;10.410;2023-04-30T00:41:26;10.30;;;3.77;;
13388;SDS011;6764;53.250;10.410;2023-04-30T00:43:52;12.80;;;3.53;;
13388;SDS011;6764;53.250;10.410;2023-04-30T00:46:18;12.67;;;4.40;;
13388;SDS011;6764;53.250;10.410;2023-04-30T00:48:43;10.37;;;3.60;;
13388;SDS011;6764;53.250;10.410;2023-04-30T00:51:09;9.23;;;3.90;;
13388;SDS011;6764;53.250;10.410;2023-04-30T00:53:36;14.47;;;4.57;;
13388;SDS011;6764;53.250;10.410;2023-04-30T00:56:04;10.33;;;3.73;;
13388;SDS011;6764;53.250;10.410;2023-04-30T00:58:32;9.47;;;3.67;;
13388;SDS011;6764;53.250;10.410;2023-04-30T01:00:58;8.70;;;4.10;;
13388;SDS011;6764;53.250;10.410;2023-04-30T01:03:25;11.80;;;3.60;;
13388;SDS011;6764;53.250;10.410;2023-04-30T01:05:52;10.03;;;3.63;;
13388;SDS011;6764;53.250;10.410;2023-04-30T01:08:18;8.93;;;4.67;;
13388;SDS011;6764;53.250;10.410;2023-04-30T01:10:45;10.37;;;4.00;;
13388;SDS011;6764;53.250;10.410;2023-04-30T01:13:40;18.80;;;4.57;;
13388;SDS011;6764;53.250;10.410;2023-04-30T01:16:17;8.60;;;4.23;;
13388;SDS011;6764;53.250;10.410;2023-04-30T01:18:51;7.40;;;3.33;;
13388;SDS011;6764;53.250;10.410;2023-04-30T01:21:21;10.97;;;3.57;;
13388;SDS011;6764;53.250;10.410;2023-04-30T01:26:49;7.67;;;4.07;;
13388;SDS011;6764;53.250;10.410;2023-04-30T01:29:18;10.77;;;4.13;;
13388;SDS011;6764;53.250;10.410;2023-04-30T01:31:45;6.47;;;4.10;;
13388;SDS011;6764;53.250;10.410;2023-04-30T01:34:11;10.83;;;3.60;;
13388;SDS011;6764;53.250;10.410;2023-04-30T01:44:50;8.20;;;4.20;;
13388;SDS011;6764;53.250;10.410;2023-04-30T01:47:45;11.90;;;4.37;;
13388;SDS011;6764;53.250;10.410;2023-04-30T01:50:31;10.80;;;4.17;;
13388;SDS011;6764;53.250;10.410;2023-04-30T01:52:59;8.57;;;3.90;;
13388;SDS011;6764;53.250;10.410;2023-04-30T01:55:27;8.03;;;3.93;;
13388;SDS011;6764;53.250;10.410;2023-04-30T01:58:02;8.33;;;4.00;;
13388;SDS011;6764;53.250;10.410;2023-04-30T02:00:30;8.83;;;3.60;;
13388;SDS011;6764;53.250;10.410;2023-04-30T02:02:59;9.17;;;3.90;;
13388;SDS011;6764;53.250;10.410;2023-04-30T02:05:24;11.30;;;4.20;;
13388;SDS011;6764;53.250;10.410;2023-04-30T02:07:50;7.73;;;4.00;;
13388;SDS011;6764;53.250;10.410;2023-04-30T02:10:18;8.07;;;4.73;;
13388;SDS011;6764;53.250;10.410;2023-04-30T02:12:46;10.40;;;3.83;;
13388;SDS011;6764;53.250;10.410;2023-04-30T02:15:12;7.20;;;3.73;;
13388;SDS011;6764;53.250;10.410;2023-04-30T02:17:38;9.60;;;4.20;;
13388;SDS011;6764;53.250;10.410;2023-04-30T02:20:04;9.40;;;4.23;;
13388;SDS011;6764;53.250;10.410;2023-04-30T02:22:30;7.97;;;3.97;;
13388;SDS011;6764;53.250;10.410;2023-04-30T02:24:55;7.37;;;4.03;;
13388;SDS011;6764;53.250;10.410;2023-04-30T02:27:22;9.90;;;3.90;;
13388;SDS011;6764;53.250;10.410;2023-04-30T02:29:49;7.60;;;3.87;;
13388;SDS011;6764;53.250;10.410;2023-04-30T02:32:15;11.50;;;4.50;;
13388;SDS011;6764;53.250;10.410;2023-04-30T02:34:41;9.33;;;3.87;;
13388;SDS011;6764;53.250;10.410;2023-04-30T02:37:07;9.80;;;4.30;;
13388;SDS011;6764;53.250;10.410;2023-04-30T02:39:32;7.20;;;4.23;;
13388;SDS011;6764;53.250;10.410;2023-04-30T02:41:58;9.50;;;4.40;;
13388;SDS011;6764;53.250;10.410;2023-04-30T02:44:24;8.47;;;3.73;;
13388;SDS011;6764;53.250;10.410;2023-04-30T02:46:49;9.87;;;4.20;;
13388;SDS011;6764;53.250;10.410;2023-04-30T02:49:15;6.53;;;4.10;;
13388;SDS011;6764;53.250;10.410;2023-04-30T02:51:41;10.10;;;4.20;;
13388;SDS011;6764;53.250;10.410;2023-04-30T02:54:06;16.90;;;4.30;;
13388;SDS011;6764;53.250;10.410;2023-04-30T02:56:32;7.10;;;4.90;;
13388;SDS011;6764;53.250;10.410;2023-04-30T02:58:58;8.93;;;4.30;;
13388;SDS011;6764;53.250;10.410;2023-04-30T03:01:24;8.10;;;4.10;;
13388;SDS011;6764;53.250;10.410;2023-04-30T03:03:50;10.97;;;4.40;;
13388;SDS011;6764;53.250;10.410;2023-04-30T03:06:16;9.87;;;4.30;;
13388;SDS011;6764;53.250;10.410;2023-04-30T03:08:41;10.47;;;4.40;;
13388;SDS011;6764;53.250;10.410;2023-04-30T03:11:07;12.60;;;3.97;;
13388;SDS011;6764;53.250;10.410;2023-04-30T03:13:32;12.33;;;4.23;;
13388;SDS011;6764;53.250;10.410;2023-04-30T03:15:58;7.00;;;3.60;;
13388;SDS011;6764;53.250;10.410;2023-04-30T03:18:27;6.63;;;3.90;;
13388;SDS011;6764;53.250;10.410;2023-04-30T03:20:53;11.10;;;4.27;;
13388;SDS011;6764;53.250;10.410;2023-04-30T03:23:19;7.97;;;3.60;;
13388;SDS011;6764;53.250;10.410;2023-04-30T03:25:45;8.03;;;4.00;;
13388;SDS011;6764;53.250;10.410;2023-04-30T03:28:11;12.47;;;4.80;;
13388;SDS011;6764;53.250;10.410;2023-04-30T03:30:37;8.03;;;4.13;;
13388;SDS011;6764;53.250;10.410;2023-04-30T03:33:02;11.20;;;4.20;;
13388;SDS011;6764;53.250;10.410;2023-04-30T03:35:30;9.07;;;4.10;;
13388;SDS011;6764;53.250;10.410;2023-04-30T03:37:57;10.77;;;4.00;;
13388;SDS011;6764;53.250;10.410;2023-04-30T03:40:23;9.50;;;4.27;;
13388;SDS011;6764;53.250;10.410;2023-04-30T03:42:49;11.20;;;4.90;;
13388;SDS011;6764;53.250;10.410;2023-04-30T03:45:14;9.03;;;3.60;;
13388;SDS011;6764;53.250;10.410;2023-04-30T03:47:41;12.73;;;4.50;;
13388;SDS011;6764;53.250;10.410;2023-04-30T03:50:07;8.23;;;4.27;;
13388;SDS011;6764;53.250;10.410;2023-04-30T03:52:34;8.83;;;4.33;;
13388;SDS011;6764;53.250;10.410;2023-04-30T03:55:00;9.57;;;4.50;;
13388;SDS011;6764;53.250;10.410;2023-04-30T03:57:27;8.40;;;3.87;;
13388;SDS011;6764;53.250;10.410;2023-04-30T03:59:53;7.07;;;4.20;;
13388;SDS011;6764;53.250;10.410;2023-04-30T04:02:18;9.13;;;3.93;;
13388;SDS011;6764;53.250;10.410;2023-04-30T04:04:45;9.93;;;4.10;;
13388;SDS011;6764;53.250;10.410;2023-04-30T04:07:11;12.20;;;5.10;;
13388;SDS011;6764;53.250;10.410;2023-04-30T04:09:36;8.53;;;3.97;;
13388;SDS011;6764;53.250;10.410;2023-04-30T04:12:02;13.50;;;5.40;;
13388;SDS011;6764;53.250;10.410;2023-04-30T04:14:28;8.60;;;4.20;;
13388;SDS011;6764;53.250;10.410;2023-04-30T04:16:54;10.57;;;4.17;;
13388;SDS011;6764;53.250;10.410;2023-04-30T04:19:21;6.70;;;4.63;;
13388;SDS011;6764;53.250;10.410;2023-04-30T04:21:47;11.10;;;4.27;;
13388;SDS011;6764;53.250;10.410;2023-04-30T04:24:13;9.57;;;3.90;;
13388;SDS011;6764;53.250;10.410;2023-04-30T04:26:39;10.93;;;4.40;;
13388;SDS011;6764;53.250;10.410;2023-04-30T04:29:05;8.10;;;4.17;;
13388;SDS011;6764;53.250;10.410;2023-04-30T04:31:32;6.67;;;4.27;;
13388;SDS011;6764;53.250;10.410;2023-04-30T04:33:59;9.43;;;4.30;;
13388;SDS011;6764;53.250;10.410;2023-04-30T04:36:26;13.50;;;5.30;;
13388;SDS011;6764;53.250;10.410;2023-04-30T04:39:01;7.50;;;4.13;;
13388;SDS011;6764;53.250;10.410;2023-04-30T04:41:28;11.53;;;4.63;;
13388;SDS011;6764;53.250;10.410;2023-04-30T04:43:54;9.40;;;4.40;;
13388;SDS011;6764;53.250;10.410;2023-04-30T04:46:20;10.30;;;4.73;;
13388;SDS011;6764;53.250;10.410;2023-04-30T04:48:47;8.93;;;4.63;;
13388;SDS011;6764;53.250;10.410;2023-04-30T04:51:13;8.30;;;4.37;;
13388;SDS011;6764;53.250;10.410;2023-04-30T04:53:38;9.50;;;4.63;;
13388;SDS011;6764;53.250;10.410;2023-04-30T04:56:04;7.00;;;3.93;;
13388;SDS011;6764;53.250;10.410;2023-04-30T04:58:31;11.57;;;4.57;;
13388;SDS011;6764;53.250;10.410;2023-04-30T05:00:57;7.73;;;4.53;;
13388;SDS011;6764;53.250;10.410;2023-04-30T05:03:27;8.60;;;3.83;;
13388;SDS011;6764;53.250;10.410;2023-04-30T05:05:55;12.93;;;4.57;;
13388;SDS011;6764;53.250;10.410;2023-04-30T05:08:21;8.87;;;4.43;;
13388;SDS011;6764;53.250;10.410;2023-04-30T05:10:46;8.10;;;4.30;;
13388;SDS011;6764;53.250;10.410;2023-04-30T05:13:12;10.37;;;3.70;;
13388;SDS011;6764;53.250;10.410;2023-04-30T05:15:37;12.93;;;4.70;;
13388;SDS011;6764;53.250;10.410;2023-04-30T05:18:03;9.73;;;4.47;;
13388;SDS011;6764;53.250;10.410;2023-04-30T05:20:29;8.50;;;4.00;;
13388;SDS011;6764;53.250;10.410;2023-04-30T05:22:54;10.10;;;4.97;;
13388;SDS011;6764;53.250;10.410;2023-04-30T05:25:20;10.20;;;4.87;;
13388;SDS011;6764;53.250;10.410;2023-04-30T05:27:45;4.97;;;3.70;;
13388;SDS011;6764;53.250;10.410;2023-04-30T05:30:11;10.10;;;4.50;;
13388;SDS011;6764;53.250;10.410;2023-04-30T05:32:37;8.60;;;4.00;;
13388;SDS011;6764;53.250;10.410;2023-04-30T05:35:02;9.73;;;4.63;;
13388;SDS011;6764;53.250;10.410;2023-04-30T05:37:28;7.70;;;4.20;;
13388;SDS011;6764;53.250;10.410;2023-04-30T05:39:54;9.13;;;4.10;;
13388;SDS011;6764;53.250;10.410;2023-04-30T05:42:20;9.07;;;4.23;;
13388;SDS011;6764;53.250;10.410;2023-04-30T05:44:45;14.13;;;5.33;;
13388;SDS011;6764;53.250;10.410;2023-04-30T05:47:12;8.53;;;4.20;;
13388;SDS011;6764;53.250;10.410;2023-04-30T05:49:37;9.47;;;4.30;;
13388;SDS011;6764;53.250;10.410;2023-04-30T05:52:03;11.07;;;3.97;;
13388;SDS011;6764;53.250;10.410;2023-04-30T05:54:29;9.23;;;4.57;;
13388;SDS011;6764;53.250;10.410;2023-04-30T05:56:55;9.70;;;4.53;;
13388;SDS011;6764;53.250;10.410;2023-04-30T05:59:21;10.83;;;4.37;;
13388;SDS011;6764;53.250;10.410;2023-04-30T06:01:46;10.87;;;4.10;;
13388;SDS011;6764;53.250;10.410;2023-04-30T06:04:12;10.07;;;4.73;;
13388;SDS011;6764;53.250;10.410;2023-04-30T06:06:37;8.17;;;4.13;;
13388;SDS011;6764;53.250;10.410;2023-04-30T06:09:03;11.23;;;4.03;;
13388;SDS011;6764;53.250;10.410;2023-04-30T06:11:29;7.70;;;4.10;;
13388;SDS011;6764;53.250;10.410;2023-04-30T06:13:55;10.63;;;4.30;;
13388;SDS011;6764;53.250;10.410;2023-04-30T06:16:21;9.03;;;4.80;;
13388;SDS011;6764;53.250;10.410;2023-04-30T06:18:47;7.67;;;3.47;;
13388;SDS011;6764;53.250;10.410;2023-04-30T06:21:12;7.50;;;3.97;;
13388;SDS011;6764;53.250;10.410;2023-04-30T06:23:38;9.13;;;3.67;;
13388;SDS011;6764;53.250;10.410;2023-04-30T06:26:04;9.47;;;3.43;;
13388;SDS011;6764;53.250;10.410;2023-04-30T06:28:29;8.27;;;2.90;;
13388;SDS011;6764;53.250;10.410;2023-04-30T06:30:55;7.55;;;3.38;;
13388;SDS011;6764;53.250;10.410;2023-04-30T06:33:21;7.43;;;3.13;;
13388;SDS011;6764;53.250;10.410;2023-04-30T06:35:47;7.70;;;2.90;;
13388;SDS011;6764;53.250;10.410;2023-04-30T06:38:15;11.90;;;3.42;;
13388;SDS011;6764;53.250;10.410;2023-04-30T06:40:42;6.28;;;2.53;;
13388;SDS011;6764;53.250;10.410;2023-04-30T06:43:08;7.95;;;2.60;;
13388;SDS011;6764;53.250;10.410;2023-04-30T06:45:33;5.00;;;2.42;;
13388;SDS011;6764;53.250;10.410;2023-04-30T06:47:59;8.50;;;2.92;;
13388;SDS011;6764;53.250;10.410;2023-04-30T06:50:25;5.93;;;2.42;;
13388;SDS011;6764;53.250;10.410;2023-04-30T06:52:51;6.35;;;2.55;;
13388;SDS011;6764;53.250;10.410;2023-04-30T06:55:16;7.88;;;2.78;;
13388;SDS011;6764;53.250;10.410;2023-04-30T06:57:42;6.80;;;2.63;;
13388;SDS011;6764;53.250;10.410;2023-04-30T07:00:08;7.25;;;2.33;;
13388;SDS011;6764;53.250;10.410;2023-04-30T07:02:34;6.70;;;2.58;;
13388;SDS011;6764;53.250;10.410;2023-04-30T07:05:00;5.75;;;2.20;;
13388;SDS011;6764;53.250;10.410;2023-04-30T07:07:25;9.10;;;3.17;;
13388;SDS011;6764;53.250;10.410;2023-04-30T07:09:51;5.20;;;2.53;;
13388;SDS011;6764;53.250;10.410;2023-04-30T07:12:17;5.78;;;2.47;;
13388;SDS011;6764;53.250;10.410;2023-04-30T07:14:43;8.27;;;2.28;;
13388;SDS011;6764;53.250;10.410;2023-04-30T07:17:09;6.53;;;2.40;;
13388;SDS011;6764;53.250;10.410;2023-04-30T07:19:35;6.47;;;2.88;;
13388;SDS011;6764;53.250;10.410;2023-04-30T07:22:01;8.85;;;2.53;;
13388;SDS011;6764;53.250;10.410;2023-04-30T07:24:26;5.85;;;2.67;;
13388;SDS011;6764;53.250;10.410;2023-04-30T07:26:52;6.32;;;2.75;;
13388;SDS011;6764;53.250;10.410;2023-04-30T07:29:18;8.10;;;2.85;;
13388;SDS011;6764;53.250;10.410;2023-04-30T07:31:43;6.40;;;2.50;;
13388;SDS011;6764;53.250;10.410;2023-04-30T07:34:09;7.53;;;2.85;;
13388;SDS011;6764;53.250;10.410;2023-04-30T07:36:34;7.45;;;2.63;;
13388;SDS011;6764;53.250;10.410;2023-04-30T07:39:02;7.30;;;2.30;;
13388;SDS011;6764;53.250;10.410;2023-04-30T07:41:28;6.22;;;2.75;;
13388;SDS011;6764;53.250;10.410;2023-04-30T07:43:53;9.65;;;3.05;;
13388;SDS011;6764;53.250;10.410;2023-04-30T07:46:19;8.73;;;2.95;;
13388;SDS011;6764;53.250;10.410;2023-04-30T07:48:44;11.00;;;3.10;;
13388;SDS011;6764;53.250;10.410;2023-04-30T07:51:10;9.27;;;2.95;;
13388;SDS011;6764;53.250;10.410;2023-04-30T07:53:36;6.82;;;2.80;;
13388;SDS011;6764;53.250;10.410;2023-04-30T07:56:01;10.57;;;3.05;;
13388;SDS011;6764;53.250;10.410;2023-04-30T07:58:27;7.15;;;2.67;;
13388;SDS011;6764;53.250;10.410;2023-04-30T08:00:53;7.18;;;3.00;;
13388;SDS011;6764;53.250;10.410;2023-04-30T08:03:18;11.20;;;2.90;;
13388;SDS011;6764;53.250;10.410;2023-04-30T08:05:45;6.38;;;2.28;;
13388;SDS011;6764;53.250;10.410;2023-04-30T08:08:11;6.65;;;2.78;;
13388;SDS011;6764;53.250;10.410;2023-04-30T08:10:37;7.28;;;2.78;;
13388;SDS011;6764;53.250;10.410;2023-04-30T08:13:03;6.55;;;2.28;;
13388;SDS011;6764;53.250;10.410;2023-04-30T08:15:29;4.97;;;3.00;;
13388;SDS011;6764;53.250;10.410;2023-04-30T08:17:57;6.38;;;2.42;;
13388;SDS011;6764;53.250;10.410;2023-04-30T08:20:22;8.55;;;2.85;;
13388;SDS011;6764;53.250;10.410;2023-04-30T08:22:48;7.57;;;3.28;;
13388;SDS011;6764;53.250;10.410;2023-04-30T08:25:14;5.28;;;2.90;;
13388;SDS011;6764;53.250;10.410;2023-04-30T08:27:39;8.98;;;2.58;;
13388;SDS011;6764;53.250;10.410;2023-04-30T08:30:05;7.68;;;2.58;;
13388;SDS011;6764;53.250;10.410;2023-04-30T08:32:35;5.28;;;2.90;;
13388;SDS011;6764;53.250;10.410;2023-04-30T08:35:04;7.38;;;3.08;;
13388;SDS011;6764;53.250;10.410;2023-04-30T08:37:30;4.15;;;2.50;;
13388;SDS011;6764;53.250;10.410;2023-04-30T08:39:57;9.55;;;3.38;;
13388;SDS011;6764;53.250;10.410;2023-04-30T08:42:29;6.43;;;3.13;;
13388;SDS011;6764;53.250;10.410;2023-04-30T08:44:58;10.98;;;2.75;;
13388;SDS011;6764;53.250;10.410;2023-04-30T08:47:26;4.18;;;2.67;;
13388;SDS011;6764;53.250;10.410;2023-04-30T08:49:52;5.93;;;2.83;;
13388;SDS011;6764;53.250;10.410;2023-04-30T08:52:17;6.10;;;2.85;;
13388;SDS011;6764;53.250;10.410;2023-04-30T08:54:43;6.80;;;2.90;;
13388;SDS011;6764;53.250;10.410;2023-04-30T08:57:10;5.60;;;2.95;;
13388;SDS011;6764;53.250;10.410;2023-04-30T08:59:35;9.75;;;2.97;;
13388;SDS011;6764;53.250;10.410;2023-04-30T09:02:01;6.07;;;2.92;;
13388;SDS011;6764;53.250;10.410;2023-04-30T09:04:26;3.72;;;2.55;;
13388;SDS011;6764;53.250;10.410;2023-04-30T09:06:53;7.97;;;3.25;;
13388;SDS011;6764;53.250;10.410;2023-04-30T09:09:26;7.82;;;2.90;;
13388;SDS011;6764;53.250;10.410;2023-04-30T09:12:11;6.93;;;2.92;;
13388;SDS011;6764;53.250;10.410;2023-04-30T09:14:38;5.82;;;2.83;;
13388;SDS011;6764;53.250;10.410;2023-04-30T09:17:04;6.65;;;2.72;;
13388;SDS011;6764;53.250;10.410;2023-04-30T09:19:30;6.15;;;2.70;;
13388;SDS011;6764;53.250;10.410;2023-04-30T09:21:56;6.35;;;2.88;;
13388;SDS011;6764;53.250;10.410;2023-04-30T09:24:22;9.40;;;3.10;;
13388;SDS011;6764;53.250;10.410;2023-04-30T09:26:48;7.57;;;3.03;;
13388;SDS011;6764;53.250;10.410;2023-04-30T09:29:14;6.18;;;3.45;;
13388;SDS011;6764;53.250;10.410;2023-04-30T09:31:45;11.07;;;3.35;;
13388;SDS011;6764;53.250;10.410;2023-04-30T09:34:11;5.20;;;2.80;;
13388;SDS011;6764;53.250;10.410;2023-04-30T09:36:41;6.45;;;2.97;;
13388;SDS011;6764;53.250;10.410;2023-04-30T09:39:19;9.80;;;3.38;;
13388;SDS011;6764;53.250;10.410;2023-04-30T09:41:44;6.03;;;3.15;;
13388;SDS011;6764;53.250;10.410;2023-04-30T09:44:30;8.45;;;2.90;;
13388;SDS011;6764;53.250;10.410;2023-04-30T09:47:00;7.75;;;2.83;;
13388;SDS011;6764;53.250;10.410;2023-04-30T09:49:27;6.25;;;2.80;;
13388;SDS011;6764;53.250;10.410;2023-04-30T09:51:56;7.55;;;3.20;;
13388;SDS011;6764;53.250;10.410;2023-04-30T09:54:24;7.18;;;3.03;;
13388;SDS011;6764;53.250;10.410;2023-04-30T09:56:53;8.55;;;3.00;;
13388;SDS011;6764;53.250;10.410;2023-04-30T09:59:26;7.35;;;2.90;;
13388;SDS011;6764;53.250;10.410;2023-04-30T10:02:00;6.30;;;3.20;;
13388;SDS011;6764;53.250;10.410;2023-04-30T10:04:34;8.70;;;3.00;;
13388;SDS011;6764;53.250;10.410;2023-04-30T10:07:14;4.65;;;3.03;;
13388;SDS011;6764;53.250;10.410;2023-04-30T10:09:53;7.00;;;3.40;;
13388;SDS011;6764;53.250;10.410;2023-04-30T10:12:20;8.75;;;3.22;;
13388;SDS011;6764;53.250;10.410;2023-04-30T10:15:01;6.40;;;3.10;;
13388;SDS011;6764;53.250;10.410;2023-04-30T10:17:35;6.13;;;2.63;;
13388;SDS011;6764;53.250;10.410;2023-04-30T10:20:05;6.15;;;2.95;;
13388;SDS011;6764;53.250;10.410;2023-04-30T10:22:33;7.55;;;2.90;;
13388;SDS011;6764;53.250;10.410;2023-04-30T10:24:59;8.85;;;3.10;;
13388;SDS011;6764;53.250;10.410;2023-04-30T10:27:26;6.55;;;2.80;;
13388;SDS011;6764;53.250;10.410;2023-04-30T10:29:53;7.90;;;3.35;;
13388;SDS011;6764;53.250;10.410;2023-04-30T10:32:19;7.47;;;2.67;;
13388;SDS011;6764;53.250;10.410;2023-04-30T10:40:27;4.78;;;3.00;;
13388;SDS011;6764;53.250;10.410;2023-04-30T10:42:53;3.90;;;2.55;;
13388;SDS011;6764;53.250;10.410;2023-04-30T10:45:33;7.20;;;3.47;;
13388;SDS011;6764;53.250;10.410;2023-04-30T10:48:02;5.18;;;3.17;;
13388;SDS011;6764;53.250;10.410;2023-04-30T10:50:29;7.63;;;3.00;;
13388;SDS011;6764;53.250;10.410;2023-04-30T10:53:04;8.27;;;3.25;;
13388;SDS011;6764;53.250;10.410;2023-04-30T10:55:30;6.22;;;3.42;;
13388;SDS011;6764;53.250;10.410;2023-04-30T10:57:57;9.43;;;3.00;;
13388;SDS011;6764;53.250;10.410;2023-04-30T11:00:24;6.75;;;3.03;;
13388;SDS011;6764;53.250;10.410;2023-04-30T11:02:54;5.78;;;3.13;;
13388;SDS011;6764;53.250;10.410;2023-04-30T11:05:23;6.97;;;3.28;;
13388;SDS011;6764;53.250;10.410;2023-04-30T11:08:02;4.85;;;2.75;;
13388;SDS011;6764;53.250;10.410;2023-04-30T11:10:31;7.60;;;2.42;;
13388;SDS011;6764;53.250;10.410;2023-04-30T11:12:58;6.38;;;3.33;;
13388;SDS011;6764;53.250;10.410;2023-04-30T11:15:38;5.82;;;2.90;;
13388;SDS011;6764;53.250;10.410;2023-04-30T11:18:06;6.72;;;2.90;;
13388;SDS011;6764;53.250;10.410;2023-04-30T11:20:32;6.43;;;3.10;;
13388;SDS011;6764;53.250;10.410;2023-04-30T11:23:07;8.80;;;3.15;;
13388;SDS011;6764;53.250;10.410;2023-04-30T11:25:46;6.45;;;2.78;;
13388;SDS011;6764;53.250;10.410;2023-04-30T11:28:13;5.60;;;3.05;;
13388;SDS011;6764;53.250;10.410;2023-04-30T11:30:41;6.20;;;2.65;;
13388;SDS011;6764;53.250;10.410;2023-04-30T11:33:14;6.00;;;3.10;;
13388;SDS011;6764;53.250;10.410;2023-04-30T11:35:41;9.23;;;3.70;;
13388;SDS011;6764;53.250;10.410;2023-04-30T11:38:07;4.85;;;3.00;;
13388;SDS011;6764;53.250;10.410;2023-04-30T11:40:36;6.50;;;3.17;;
13388;SDS011;6764;53.250;10.410;2023-04-30T11:43:02;7.97;;;3.17;;
13388;SDS011;6764;53.250;10.410;2023-04-30T11:45:28;8.00;;;3.08;;
13388;SDS011;6764;53.250;10.410;2023-04-30T11:47:54;6.65;;;3.35;;
13388;SDS011;6764;53.250;10.410;2023-04-30T11:50:25;6.82;;;2.63;;
13388;SDS011;6764;53.250;10.410;2023-04-30T11:52:56;8.30;;;3.30;;
13388;SDS011;6764;53.250;10.410;2023-04-30T11:55:24;5.70;;;2.70;;
13388;SDS011;6764;53.250;10.410;2023-04-30T11:57:54;6.68;;;3.38;;
13388;SDS011;6764;53.250;10.410;2023-04-30T12:00:21;6.13;;;3.20;;
13388;SDS011;6764;53.250;10.410;2023-04-30T12:02:52;7.50;;;3.35;;
13388;SDS011;6764;53.250;10.410;2023-04-30T12:05:18;5.22;;;3.60;;
13388;SDS011;6764;53.250;10.410;2023-04-30T12:07:46;7.95;;;3.35;;
13388;SDS011;6764;53.250;10.410;2023-04-30T12:10:18;4.97;;;3.00;;
13388;SDS011;6764;53.250;10.410;2023-04-30T12:12:45;7.47;;;3.50;;
13388;SDS011;6764;53.250;10.410;2023-04-30T12:15:15;8.38;;;3.45;;
13388;SDS011;6764;53.250;10.410;2023-04-30T12:17:43;6.90;;;3.45;;
13388;SDS011;6764;53.250;10.410;2023-04-30T12:20:10;6.68;;;3.30;;
13388;SDS011;6764;53.250;10.410;2023-04-30T12:22:37;8.85;;;3.75;;
13388;SDS011;6764;53.250;10.410;2023-04-30T12:25:06;5.70;;;3.30;;
13388;SDS011;6764;53.250;10.410;2023-04-30T12:27:34;6.88;;;3.08;;
13388;SDS011;6764;53.250;10.410;2023-04-30T12:30:07;4.78;;;3.42;;
13388;SDS011;6764;53.250;10.410;2023-04-30T12:32:40;7.40;;;3.20;;
13388;SDS011;6764;53.250;10.410;2023-04-30T12:35:07;7.90;;;2.97;;
13388;SDS011;6764;53.250;10.410;2023-04-30T12:37:40;6.80;;;3.08;;
13388;SDS011;6764;53.250;10.410;2023-04-30T12:40:10;7.30;;;3.03;;
13388;SDS011;6764;53.250;10.410;2023-04-30T12:42:36;8.20;;;3.63;;
13388;SDS011;6764;53.250;10.410;2023-04-30T12:45:02;7.35;;;3.78;;
13388;SDS011;6764;53.250;10.410;2023-04-30T12:47:28;6.10;;;3.65;;
13388;SDS011;6764;53.250;10.410;2023-04-30T12:49:54;6.78;;;3.20;;
13388;SDS011;6764;53.250;10.410;2023-04-30T12:52:22;5.57;;;3.67;;
13388;SDS011;6764;53.250;10.410;2023-04-30T12:54:50;5.50;;;3.20;;
13388;SDS011;6764;53.250;10.410;2023-04-30T12:57:16;7.32;;;3.33;;
13388;SDS011;6764;53.250;10.410;2023-04-30T13:02:16;5.10;;;3.20;;
13388;SDS011;6764;53.250;10.410;2023-04-30T13:04:42;5.22;;;3.15;;
13388;SDS011;6764;53.250;10.410;2023-04-30T13:07:08;7.57;;;3.22;;
13388;SDS011;6764;53.250;10.410;2023-04-30T13:09:35;7.65;;;3.20;;
13388;SDS011;6764;53.250;10.410;2023-04-30T13:12:02;8.18;;;3.20;;
13388;SDS011;6764;53.250;10.410;2023-04-30T13:14:28;4.47;;;2.67;;
13388;SDS011;6764;53.250;10.410;2023-04-30T13:16:57;9.52;;;3.60;;
13388;SDS011;6764;53.250;10.410;2023-04-30T13:19:23;5.15;;;3.33;;
13388;SDS011;6764;53.250;10.410;2023-04-30T13:21:49;7.07;;;3.22;;
13388;SDS011;6764;53.250;10.410;2023-04-30T13:24:15;5.30;;;2.75;;
13388;SDS011;6764;53.250;10.410;2023-04-30T13:26:41;6.20;;;3.15;;
13388;SDS011;6764;53.250;10.410;2023-04-30T13:29:07;4.60;;;3.00;;
13388;SDS011;6764;53.250;10.410;2023-04-30T13:31:33;9.05;;;4.80;;
13388;SDS011;6764;53.250;10.410;2023-04-30T13:33:58;4.35;;;2.83;;
13388;SDS011;6764;53.250;10.410;2023-04-30T13:36:24;9.20;;;3.22;;
13388;SDS011;6764;53.250;10.410;2023-04-30T13:38:51;7.68;;;3.50;;
13388;SDS011;6764;53.250;10.410;2023-04-30T13:41:17;4.60;;;2.80;;
13388;SDS011;6764;53.250;10.410;2023-04-30T13:43:43;6.78;;;3.05;;
13388;SDS011;6764;53.250;10.410;2023-04-30T13:46:10;7.05;;;3.10;;
13388;SDS011;6764;53.250;10.410;2023-04-30T13:48:36;5.15;;;2.92;;
13388;SDS011;6764;53.250;10.410;2023-04-30T13:51:01;6.05;;;3.25;;
13388;SDS011;6764;53.250;10.410;2023-04-30T13:53:27;5.28;;;2.90;;
13388;SDS011;6764;53.250;10.410;2023-04-30T13:55:53;7.45;;;3.03;;
13388;SDS011;6764;53.250;10.410;2023-04-30T13:58:19;5.55;;;3.53;;
13388;SDS011;6764;53.250;10.410;2023-04-30T14:00:44;4.25;;;3.08;;
13388;SDS011;6764;53.250;10.410;2023-04-30T14:03:10;4.45;;;3.15;;
13388;SDS011;6764;53.250;10.410;2023-04-30T14:05:36;7.57;;;3.45;;
13388;SDS011;6764;53.250;10.410;2023-04-30T14:08:03;5.97;;;3.05;;
13388;SDS011;6764;53.250;10.410;2023-04-30T14:10:29;5.80;;;2.63;;
13388;SDS011;6764;53.250;10.410;2023-04-30T14:12:56;7.03;;;3.17;;
13388;SDS011;6764;53.250;10.410;2023-04-30T14:15:21;6.63;;;2.80;;
13388;SDS011;6764;53.250;10.410;2023-04-30T14:17:47;4.43;;;3.00;;
13388;SDS011;6764;53.250;10.410;2023-04-30T14:20:13;5.88;;;3.17;;
13388;SDS011;6764;53.250;10.410;2023-04-30T14:22:39;4.68;;;2.80;;
13388;SDS011;6764;53.250;10.410;2023-04-30T14:25:05;9.48;;;3.13;;
13388;SDS011;6764;53.250;10.410;2023-04-30T14:27:31;5.28;;;2.90;;
13388;SDS011;6764;53.250;10.410;2023-04-30T14:29:57;5.65;;;2.67;;
13388;SDS011;6764;53.250;10.410;2023-04-30T14:32:25;6.03;;;3.10;;
13388;SDS011;6764;53.250;10.410;2023-04-30T14:34:51;3.60;;;2.95;;
13388;SDS011;6764;53.250;10.410;2023-04-30T14:37:18;6.88;;;3.03;;
13388;SDS011;6764;53.250;10.410;2023-04-30T14:39:44;6.63;;;2.88;;
13388;SDS011;6764;53.250;10.410;2023-04-30T14:42:10;6.50;;;3.05;;
13388;SDS011;6764;53.250;10.410;2023-04-30T14:44:36;5.45;;;2.72;;
13388;SDS011;6764;53.250;10.410;2023-04-30T14:47:02;5.28;;;3.20;;
13388;SDS011;6764;53.250;10.410;2023-04-30T14:49:28;6.53;;;3.00;;
13388;SDS011;6764;53.250;10.410;2023-04-30T14:51:53;5.75;;;3.67;;
13388;SDS011;6764;53.250;10.410;2023-04-30T14:54:19;6.70;;;3.05;;
13388;SDS011;6764;53.250;10.410;2023-04-30T14:56:45;5.93;;;2.90;;
13388;SDS011;6764;53.250;10.410;2023-04-30T14:59:11;5.32;;;2.70;;
13388;SDS011;6764;53.250;10.410;2023-04-30T15:01:37;7.53;;;3.47;;
13388;SDS011;6764;53.250;10.410;2023-04-30T15:04:03;9.02;;;3.30;;